createdAt,value
2022-11-29T00:00:24.375Z,51.179241
2022-11-29T00:01:24.344Z,51.179237
2022-11-29T00:02:24.525Z,51.179237
2022-11-29T00:03:24.409Z,51.179226
2022-11-29T00:04:24.306Z,51.179237
2022-11-29T00:05:24.284Z,51.179253
2022-11-29T00:06:24.315Z,51.179226
2022-11-29T00:07:24.330Z,51.179226
2022-11-29T00:08:24.291Z,51.179253
2022-11-29T00:09:24.278Z,51.179283
2022-11-29T00:10:24.264Z,51.179237
2022-11-29T00:11:24.266Z,51.179207
2022-11-29T00:12:24.265Z,51.179241
2022-11-29T00:13:24.244Z,51.179253
2022-11-29T00:14:24.247Z,51.179241
2022-11-29T00:15:24.192Z,51.179245
2022-11-29T00:16:24.209Z,51.179234
2022-11-29T00:17:24.166Z,51.179199
2022-11-29T00:18:24.242Z,51.179188
2022-11-29T00:19:24.187Z,51.179180
2022-11-29T00:20:24.160Z,51.179203
2022-11-29T00:21:24.126Z,51.179272
2022-11-29T00:22:24.154Z,51.179249
2022-11-29T00:23:24.157Z,51.179214
2022-11-29T00:24:24.112Z,51.179199
2022-11-29T00:25:24.077Z,51.179249
2022-11-29T00:26:24.094Z,51.179260
2022-11-29T00:27:24.111Z,51.179264
2022-11-29T00:28:24.116Z,51.179253
2022-11-29T00:29:24.062Z,51.179241
2022-11-29T00:30:24.118Z,51.179249
2022-11-29T00:31:24.052Z,51.179249
2022-11-29T00:32:24.020Z,51.179237
2022-11-29T00:33:24.007Z,51.179249
2022-11-29T00:34:24.038Z,51.179272
2022-11-29T00:35:24.002Z,51.179241
2022-11-29T00:36:24.007Z,51.179249
2022-11-29T00:37:23.980Z,51.179279
2022-11-29T00:38:23.981Z,51.179245
2022-11-29T00:39:23.974Z,51.179245
2022-11-29T00:40:23.963Z,51.179218
2022-11-29T00:41:23.930Z,51.179230
2022-11-29T00:42:23.946Z,51.179214
2022-11-29T00:43:23.931Z,51.179249
2022-11-29T00:44:23.919Z,51.179245
2022-11-29T00:45:23.903Z,51.179260
2022-11-29T00:46:23.963Z,51.179241
2022-11-29T00:47:23.868Z,51.179268
2022-11-29T00:48:23.858Z,51.179256
2022-11-29T00:49:23.855Z,51.179234
2022-11-29T00:50:23.807Z,51.179234
2022-11-29T00:51:23.832Z,51.179207
2022-11-29T00:52:23.825Z,51.179218
2022-11-29T00:53:23.824Z,51.179234
2022-11-29T00:54:23.817Z,51.179260
2022-11-29T00:55:23.772Z,51.179298
2022-11-29T00:56:23.747Z,51.179340
2022-11-29T00:57:23.808Z,51.179314
2022-11-29T00:58:23.784Z,51.179317
2022-11-29T00:59:23.719Z,51.179283
2022-11-29T01:00:23.755Z,51.179256
2022-11-29T01:01:24.351Z,51.179256
2022-11-29T01:02:23.768Z,51.179226
2022-11-29T01:03:23.717Z,51.179237
2022-11-29T01:04:23.722Z,51.179207
2022-11-29T01:05:23.711Z,51.179188
2022-11-29T01:06:23.683Z,51.179211
2022-11-29T01:07:23.767Z,51.179226
2022-11-29T01:08:23.653Z,51.179268
2022-11-29T01:09:23.629Z,51.179249
2022-11-29T01:10:23.683Z,51.179237
2022-11-29T01:11:23.647Z,51.179276
2022-11-29T01:12:23.799Z,51.179260
2022-11-29T01:13:23.625Z,51.179264
2022-11-29T01:14:23.616Z,51.179241
2022-11-29T01:15:23.573Z,51.179241
2022-11-29T01:16:23.642Z,51.179188
2022-11-29T01:17:23.587Z,51.179226
2022-11-29T01:18:23.565Z,51.179237
2022-11-29T01:19:23.551Z,51.179241
2022-11-29T01:20:23.561Z,51.179226
2022-11-29T01:21:23.564Z,51.179230
2022-11-29T01:22:23.512Z,51.179241
2022-11-29T01:23:23.511Z,51.179249
2022-11-29T01:24:23.554Z,51.179260
2022-11-29T01:25:23.479Z,51.179195
2022-11-29T01:26:23.490Z,51.179268
2022-11-29T01:27:23.491Z,51.179256
2022-11-29T01:28:23.440Z,51.179241
2022-11-29T01:29:23.485Z,51.179234
2022-11-29T01:30:23.479Z,51.179222
2022-11-29T01:31:23.419Z,51.179199
2022-11-29T01:32:23.463Z,51.179169
2022-11-29T01:33:23.452Z,51.179184
2022-11-29T01:34:23.432Z,51.179214
2022-11-29T01:35:23.394Z,51.179211
2022-11-29T01:36:23.441Z,51.179161
2022-11-29T01:37:23.396Z,51.179195
2022-11-29T01:38:23.379Z,51.179199
2022-11-29T01:39:23.376Z,51.179188
2022-11-29T01:40:23.365Z,51.179230
2022-11-29T01:41:23.321Z,51.179180
2022-11-29T01:42:23.332Z,51.179146
2022-11-29T01:43:23.314Z,51.179184
2022-11-29T01:44:23.299Z,51.179214
2022-11-29T01:45:23.376Z,51.179218
2022-11-29T01:46:23.344Z,51.179241
2022-11-29T01:47:23.266Z,51.179211
2022-11-29T01:48:23.238Z,51.179176
2022-11-29T01:49:23.367Z,51.179180
2022-11-29T01:50:23.273Z,51.179245
2022-11-29T01:51:23.227Z,51.179237
2022-11-29T01:52:23.280Z,51.179237
2022-11-29T01:53:23.246Z,51.179253
2022-11-29T01:54:23.190Z,51.179237
2022-11-29T01:55:23.211Z,51.179230
2022-11-29T01:56:23.158Z,51.179237
2022-11-29T01:57:23.133Z,51.179222
2022-11-29T01:58:23.147Z,51.179195
2022-11-29T01:59:23.129Z,51.179165
2022-11-29T02:00:23.124Z,51.179146
2022-11-29T02:01:24.190Z,51.179199
2022-11-29T02:02:23.121Z,51.179218
2022-11-29T02:03:23.108Z,51.179195
2022-11-29T02:04:23.102Z,51.179153
2022-11-29T02:05:23.061Z,51.179237
2022-11-29T02:06:23.058Z,51.179214
2022-11-29T02:07:23.113Z,51.179207
2022-11-29T02:08:23.049Z,51.179253
2022-11-29T02:09:23.029Z,51.179256
2022-11-29T02:10:23.039Z,51.179256
2022-11-29T02:11:22.963Z,51.179226
2022-11-29T02:12:23.045Z,51.179234
2022-11-29T02:13:23.028Z,51.179264
2022-11-29T02:14:22.967Z,51.179268
2022-11-29T02:15:22.964Z,51.179222
2022-11-29T02:16:22.970Z,51.179234
2022-11-29T02:17:22.984Z,51.179188
2022-11-29T02:18:22.930Z,51.179199
2022-11-29T02:19:22.953Z,51.179253
2022-11-29T02:20:22.940Z,51.179249
2022-11-29T02:21:22.891Z,51.179253
2022-11-29T02:22:22.902Z,51.179291
2022-11-29T02:23:22.943Z,51.179348
2022-11-29T02:24:22.876Z,51.179340
2022-11-29T02:25:22.868Z,51.179272
2022-11-29T02:26:22.875Z,51.179226
2022-11-29T02:27:22.881Z,51.179222
2022-11-29T02:28:22.842Z,51.179291
2022-11-29T02:29:22.820Z,51.179218
2022-11-29T02:30:22.850Z,51.179165
2022-11-29T02:31:22.809Z,51.179245
2022-11-29T02:32:22.837Z,51.179260
2022-11-29T02:33:22.807Z,51.179298
2022-11-29T02:34:22.747Z,51.179283
2022-11-29T02:35:22.762Z,51.179249
2022-11-29T02:36:22.764Z,51.179253
2022-11-29T02:37:22.782Z,51.179291
2022-11-29T02:38:22.758Z,51.179234
2022-11-29T02:39:22.749Z,51.179264
2022-11-29T02:40:22.725Z,51.179279
2022-11-29T02:41:22.721Z,51.179260
2022-11-29T02:42:22.738Z,51.179264
2022-11-29T02:43:22.702Z,51.179283
2022-11-29T02:44:22.738Z,51.179272
2022-11-29T02:45:22.676Z,51.179295
2022-11-29T02:46:22.734Z,51.179291
2022-11-29T02:47:22.682Z,51.179237
2022-11-29T02:48:22.626Z,51.179279
2022-11-29T02:49:22.620Z,51.179264
2022-11-29T02:50:22.639Z,51.179241
2022-11-29T02:51:22.604Z,51.179276
2022-11-29T02:52:22.582Z,51.179287
2022-11-29T02:53:22.613Z,51.179287
2022-11-29T02:54:22.598Z,51.179283
2022-11-29T02:55:22.591Z,51.179279
2022-11-29T02:56:22.552Z,51.179249
2022-11-29T02:57:22.507Z,51.179249
2022-11-29T02:58:22.564Z,51.179283
2022-11-29T02:59:22.507Z,51.179291
2022-11-29T03:00:22.562Z,51.179272
2022-11-29T03:01:22.534Z,51.179283
2022-11-29T03:02:22.550Z,51.179287
2022-11-29T03:03:22.492Z,51.179279
2022-11-29T03:04:22.547Z,51.179287
2022-11-29T03:05:22.494Z,51.179283
2022-11-29T03:06:22.518Z,51.179287
2022-11-29T03:07:22.509Z,51.179279
2022-11-29T03:08:22.419Z,51.179234
2022-11-29T03:09:22.437Z,51.179253
2022-11-29T03:10:22.450Z,51.179249
2022-11-29T03:11:22.409Z,51.179287
2022-11-29T03:12:22.397Z,51.179337
2022-11-29T03:13:22.396Z,51.179306
2022-11-29T03:14:22.422Z,51.179260
2022-11-29T03:15:22.359Z,51.179272
2022-11-29T03:16:22.365Z,51.179283
2022-11-29T03:17:22.332Z,51.179344
2022-11-29T03:18:23.349Z,51.179287
2022-11-29T03:19:22.303Z,51.179234
2022-11-29T03:20:22.304Z,51.179276
2022-11-29T03:21:22.317Z,51.179268
2022-11-29T03:22:22.271Z,51.179260
2022-11-29T03:23:22.312Z,51.179268
2022-11-29T03:24:22.256Z,51.179226
2022-11-29T03:25:22.233Z,51.179276
2022-11-29T03:26:22.287Z,51.179264
2022-11-29T03:27:22.260Z,51.179272
2022-11-29T03:28:22.205Z,51.179249
2022-11-29T03:29:22.168Z,51.179298
2022-11-29T03:30:22.265Z,51.179298
2022-11-29T03:31:22.269Z,51.179253
2022-11-29T03:32:22.245Z,51.179241
2022-11-29T03:33:22.218Z,51.179237
2022-11-29T03:34:22.158Z,51.179256
2022-11-29T03:35:22.192Z,51.179256
2022-11-29T03:36:22.159Z,51.179226
2022-11-29T03:37:22.236Z,51.179241
2022-11-29T03:38:22.140Z,51.179317
2022-11-29T03:39:22.120Z,51.179295
2022-11-29T03:41:02.542Z,51.179211
2022-11-29T03:41:22.587Z,51.179268
2022-11-29T03:42:22.339Z,51.179314
2022-11-29T03:43:22.117Z,51.179356
2022-11-29T03:44:22.073Z,51.179245
2022-11-29T03:45:22.083Z,51.179146
2022-11-29T03:46:22.075Z,51.179150
2022-11-29T03:47:22.009Z,51.179222
2022-11-29T03:48:22.037Z,51.179218
2022-11-29T03:49:22.026Z,51.179291
2022-11-29T03:50:21.996Z,51.179333
2022-11-29T03:51:21.982Z,51.179398
2022-11-29T03:52:22.008Z,51.179333
2022-11-29T03:53:21.985Z,51.179310
2022-11-29T03:54:21.949Z,51.179272
2022-11-29T03:55:21.976Z,51.179291
2022-11-29T03:56:21.930Z,51.179363
2022-11-29T03:57:21.923Z,51.179314
2022-11-29T03:58:21.895Z,51.179264
2022-11-29T03:59:21.965Z,51.179310
2022-11-29T04:00:21.901Z,51.179306
2022-11-29T04:01:21.915Z,51.179283
2022-11-29T04:02:21.931Z,51.179317
2022-11-29T04:03:21.979Z,51.179321
2022-11-29T04:04:21.879Z,51.179298
2022-11-29T04:05:21.847Z,51.179306
2022-11-29T04:06:21.817Z,51.179287
2022-11-29T04:07:21.848Z,51.179192
2022-11-29T04:08:21.820Z,51.179306
2022-11-29T04:09:21.791Z,51.179344
2022-11-29T04:10:21.769Z,51.179310
2022-11-29T04:11:21.769Z,51.179268
2022-11-29T04:12:21.762Z,51.179234
2022-11-29T04:13:21.789Z,51.179222
2022-11-29T04:14:21.775Z,51.179256
2022-11-29T04:15:21.735Z,51.179272
2022-11-29T04:16:21.859Z,51.179264
2022-11-29T04:17:21.730Z,51.179199
2022-11-29T04:18:21.760Z,51.179226
2022-11-29T04:19:21.690Z,51.179295
2022-11-29T04:20:21.665Z,51.179287
2022-11-29T04:21:21.659Z,51.179295
2022-11-29T04:22:21.687Z,51.179276
2022-11-29T04:23:21.639Z,51.179272
2022-11-29T04:24:21.629Z,51.179249
2022-11-29T04:25:21.620Z,51.179310
2022-11-29T04:26:21.605Z,51.179344
2022-11-29T04:27:21.606Z,51.179295
2022-11-29T04:28:21.597Z,51.179264
2022-11-29T04:29:21.563Z,51.179237
2022-11-29T04:30:21.556Z,51.179214
2022-11-29T04:31:21.597Z,51.179234
2022-11-29T04:32:21.565Z,51.179256
2022-11-29T04:33:21.575Z,51.179249
2022-11-29T04:34:21.528Z,51.179256
2022-11-29T04:35:21.529Z,51.179234
2022-11-29T04:36:21.530Z,51.179245
2022-11-29T04:37:21.492Z,51.179214
2022-11-29T04:38:21.488Z,51.179199
2022-11-29T04:39:21.528Z,51.179211
2022-11-29T04:40:21.469Z,51.179249
2022-11-29T04:41:21.437Z,51.179245
2022-11-29T04:42:21.497Z,51.179279
2022-11-29T04:43:21.427Z,51.179214
2022-11-29T04:44:21.418Z,51.179214
2022-11-29T04:45:21.417Z,51.179237
2022-11-29T04:46:21.452Z,51.179276
2022-11-29T04:47:21.378Z,51.179295
2022-11-29T04:48:21.372Z,51.179337
2022-11-29T04:49:21.404Z,51.179276
2022-11-29T04:50:21.387Z,51.179298
2022-11-29T04:51:21.386Z,51.179329
2022-11-29T04:52:21.385Z,51.179264
2022-11-29T04:53:21.360Z,51.179249
2022-11-29T04:54:21.357Z,51.179279
2022-11-29T04:55:27.857Z,51.179306
2022-11-29T04:56:23.284Z,51.179363
2022-11-29T04:57:21.308Z,51.179329
2022-11-29T04:58:21.327Z,51.179298
2022-11-29T04:59:21.265Z,51.179230
2022-11-29T05:00:21.261Z,51.179291
2022-11-29T05:01:21.360Z,51.179279
2022-11-29T05:02:21.276Z,51.179268
2022-11-29T05:03:21.259Z,51.179260
2022-11-29T05:04:21.215Z,51.179276
2022-11-29T05:05:21.212Z,51.179276
2022-11-29T05:06:21.178Z,51.179234
2022-11-29T05:07:21.267Z,51.179249
2022-11-29T05:08:21.266Z,51.179218
2022-11-29T05:09:21.251Z,51.179153
2022-11-29T05:10:21.171Z,51.179180
2022-11-29T05:11:26.450Z,51.179199
2022-11-29T05:12:23.147Z,51.179199
2022-11-29T05:13:21.183Z,51.179188
2022-11-29T05:14:21.153Z,51.179211
2022-11-29T05:15:21.119Z,51.179226
2022-11-29T05:16:21.173Z,51.179241
2022-11-29T05:17:21.085Z,51.179226
2022-11-29T05:18:21.105Z,51.179241
2022-11-29T05:19:21.075Z,51.179237
2022-11-29T05:20:21.097Z,51.179230
2022-11-29T05:21:21.075Z,51.179218
2022-11-29T05:22:21.091Z,51.179230
2022-11-29T05:23:21.038Z,51.179268
2022-11-29T05:24:21.042Z,51.179241
2022-11-29T05:25:21.025Z,51.179272
2022-11-29T05:26:21.003Z,51.179279
2022-11-29T05:27:21.005Z,51.179234
2022-11-29T05:28:20.994Z,51.179199
2022-11-29T05:29:20.999Z,51.179176
2022-11-29T05:30:20.934Z,51.179211
2022-11-29T05:31:20.986Z,51.179203
2022-11-29T05:32:20.941Z,51.179192
2022-11-29T05:33:20.941Z,51.179184
2022-11-29T05:34:20.982Z,51.179203
2022-11-29T05:35:20.926Z,51.179249
2022-11-29T05:36:20.880Z,51.179260
2022-11-29T05:37:20.903Z,51.179249
2022-11-29T05:38:20.868Z,51.179218
2022-11-29T05:39:20.875Z,51.179222
2022-11-29T05:40:20.862Z,51.179203
2022-11-29T05:41:20.837Z,51.179180
2022-11-29T05:42:20.807Z,51.179226
2022-11-29T05:43:20.803Z,51.179207
2022-11-29T05:44:20.897Z,51.179184
2022-11-29T05:45:20.781Z,51.179207
2022-11-29T05:46:20.799Z,51.179184
2022-11-29T05:47:20.824Z,51.179192
2022-11-29T05:48:20.792Z,51.179173
2022-11-29T05:49:20.745Z,51.179142
2022-11-29T05:50:20.802Z,51.179134
2022-11-29T05:51:20.737Z,51.179153
2022-11-29T05:52:20.734Z,51.179157
2022-11-29T05:53:20.743Z,51.179195
2022-11-29T05:54:20.720Z,51.179192
2022-11-29T05:55:20.682Z,51.179173
2022-11-29T05:56:20.693Z,51.179180
2022-11-29T05:57:20.708Z,51.179222
2022-11-29T05:58:22.531Z,51.179199
2022-11-29T05:59:21.634Z,51.179199
2022-11-29T06:00:20.640Z,51.179207
2022-11-29T06:01:20.649Z,51.179218
2022-11-29T06:02:20.605Z,51.179203
2022-11-29T06:03:20.683Z,51.179218
2022-11-29T06:04:20.585Z,51.179249
2022-11-29T06:05:20.601Z,51.179276
2022-11-29T06:06:20.573Z,51.179264
2022-11-29T06:07:20.571Z,51.179207
2022-11-29T06:08:20.564Z,51.179184
2022-11-29T06:09:20.547Z,51.179287
2022-11-29T06:10:20.581Z,51.179203
2022-11-29T06:11:20.541Z,51.179199
2022-11-29T06:12:21.409Z,51.179226
2022-11-29T06:13:21.496Z,51.179176
2022-11-29T06:14:20.529Z,51.179234
2022-11-29T06:15:20.486Z,51.179253
2022-11-29T06:16:20.484Z,51.179211
2022-11-29T06:17:20.485Z,51.179256
2022-11-29T06:18:20.464Z,51.179268
2022-11-29T06:19:20.416Z,51.179291
2022-11-29T06:20:20.472Z,51.179253
2022-11-29T06:21:20.453Z,51.179241
2022-11-29T06:22:20.428Z,51.179230
2022-11-29T06:23:20.398Z,51.179222
2022-11-29T06:24:25.545Z,51.179253
2022-11-29T06:25:22.410Z,51.179268
2022-11-29T06:26:20.369Z,51.179302
2022-11-29T06:27:20.342Z,51.179295
2022-11-29T06:28:20.336Z,51.179256
2022-11-29T06:29:20.339Z,51.179222
2022-11-29T06:30:20.360Z,51.179214
2022-11-29T06:31:20.371Z,51.179218
2022-11-29T06:32:20.307Z,51.179192
2022-11-29T06:33:20.295Z,51.179218
2022-11-29T06:34:20.280Z,51.179214
2022-11-29T06:35:20.271Z,51.179214
2022-11-29T06:36:20.272Z,51.179203
2022-11-29T06:37:20.281Z,51.179214
2022-11-29T06:38:20.225Z,51.179195
2022-11-29T06:39:20.212Z,51.179180
2022-11-29T06:40:20.241Z,51.179199
2022-11-29T06:41:20.220Z,51.179203
2022-11-29T06:42:20.185Z,51.179169
2022-11-29T06:43:21.216Z,51.179207
2022-11-29T06:44:20.266Z,51.179211
2022-11-29T06:45:20.242Z,51.179211
2022-11-29T06:46:20.195Z,51.179161
2022-11-29T06:47:20.158Z,51.179214
2022-11-29T06:48:20.185Z,51.179230
2022-11-29T06:49:20.135Z,51.179234
2022-11-29T06:50:20.103Z,51.179245
2022-11-29T06:51:20.104Z,51.179245
2022-11-29T06:52:20.153Z,51.179230
2022-11-29T06:53:20.172Z,51.179237
2022-11-29T06:54:20.099Z,51.179218
2022-11-29T06:55:20.103Z,51.179211
2022-11-29T06:56:20.034Z,51.179230
2022-11-29T06:57:20.026Z,51.179226
2022-11-29T06:58:20.044Z,51.179207
2022-11-29T06:59:20.010Z,51.179214
2022-11-29T07:00:20.056Z,51.179234
2022-11-29T07:01:20.056Z,51.179226
2022-11-29T07:02:20.002Z,51.179279
2022-11-29T07:03:19.999Z,51.179291
2022-11-29T07:04:19.968Z,51.179237
2022-11-29T07:05:19.991Z,51.179234
2022-11-29T07:06:19.972Z,51.179234
2022-11-29T07:07:20.012Z,51.179211
2022-11-29T07:08:19.922Z,51.179211
2022-11-29T07:09:19.995Z,51.179207
2022-11-29T07:10:19.910Z,51.179237
2022-11-29T07:11:19.894Z,51.179230
2022-11-29T07:12:19.949Z,51.179226
2022-11-29T07:13:19.879Z,51.179234
2022-11-29T07:14:20.888Z,51.179230
2022-11-29T07:15:19.891Z,51.179241
2022-11-29T07:16:19.895Z,51.179256
2022-11-29T07:17:19.820Z,51.179226
2022-11-29T07:18:19.846Z,51.179222
2022-11-29T07:19:19.804Z,51.179234
2022-11-29T07:20:19.793Z,51.179264
2022-11-29T07:21:19.818Z,51.179276
2022-11-29T07:22:19.765Z,51.179222
2022-11-29T07:23:19.764Z,51.179214
2022-11-29T07:24:19.745Z,51.179203
2022-11-29T07:25:19.760Z,51.179195
2022-11-29T07:26:19.734Z,51.179192
2022-11-29T07:27:19.734Z,51.179203
2022-11-29T07:28:19.721Z,51.179226
2022-11-29T07:29:19.722Z,51.179260
2022-11-29T07:30:19.723Z,51.179256
2022-11-29T07:31:19.736Z,51.179256
2022-11-29T07:32:19.661Z,51.179256
2022-11-29T07:33:19.663Z,51.179249
2022-11-29T07:34:19.657Z,51.179226
2022-11-29T07:35:19.628Z,51.179188
2022-11-29T07:36:19.650Z,51.179180
2022-11-29T07:37:19.647Z,51.179173
2022-11-29T07:38:19.602Z,51.179165
2022-11-29T07:39:19.612Z,51.179188
2022-11-29T07:40:19.593Z,51.179218
2022-11-29T07:41:19.596Z,51.179203
2022-11-29T07:42:19.593Z,51.179222
2022-11-29T07:43:19.551Z,51.179253
2022-11-29T07:44:19.521Z,51.179287
2022-11-29T07:45:19.546Z,51.179287
2022-11-29T07:46:19.628Z,51.179195
2022-11-29T07:47:19.513Z,51.179230
2022-11-29T07:48:19.508Z,51.179230
2022-11-29T07:49:19.522Z,51.179268
2022-11-29T07:50:19.488Z,51.179230
2022-11-29T07:51:19.473Z,51.179218
2022-11-29T07:52:19.498Z,51.179230
2022-11-29T07:53:19.469Z,51.179279
2022-11-29T07:54:19.450Z,51.179295
2022-11-29T07:55:19.486Z,51.179306
2022-11-29T07:56:19.445Z,51.179291
2022-11-29T07:57:19.405Z,51.179268
2022-11-29T07:58:19.425Z,51.179283
2022-11-29T07:59:19.426Z,51.179302
2022-11-29T08:00:19.398Z,51.179276
2022-11-29T08:01:19.429Z,51.179256
2022-11-29T08:02:19.436Z,51.179249
2022-11-29T08:03:19.381Z,51.179237
2022-11-29T08:04:19.347Z,51.179249
2022-11-29T08:05:19.332Z,51.179268
2022-11-29T08:06:19.323Z,51.179291
2022-11-29T08:07:19.430Z,51.179295
2022-11-29T08:08:19.292Z,51.179287
2022-11-29T08:09:19.282Z,51.179260
2022-11-29T08:10:19.277Z,51.179249
2022-11-29T08:11:19.305Z,51.179256
2022-11-29T08:12:19.276Z,51.179249
2022-11-29T08:13:19.230Z,51.179268
2022-11-29T08:14:19.259Z,51.179260
2022-11-29T08:15:19.247Z,51.179211
2022-11-29T08:16:19.306Z,51.179226
2022-11-29T08:17:19.208Z,51.179226
2022-11-29T08:18:19.254Z,51.179241
2022-11-29T08:19:19.223Z,51.179287
2022-11-29T08:20:19.144Z,51.179283
2022-11-29T08:21:19.197Z,51.179256
2022-11-29T08:22:19.133Z,51.179268
2022-11-29T08:23:19.157Z,51.179279
2022-11-29T08:24:19.116Z,51.179276
2022-11-29T08:25:19.122Z,51.179264
2022-11-29T08:26:19.118Z,51.179268
2022-11-29T08:27:19.119Z,51.179268
2022-11-29T08:28:19.092Z,51.179287
2022-11-29T08:29:19.075Z,51.179287
2022-11-29T08:30:19.078Z,51.179279
2022-11-29T08:31:19.194Z,51.179245
2022-11-29T08:32:19.071Z,51.179256
2022-11-29T08:33:19.025Z,51.179260
2022-11-29T08:34:19.004Z,51.179245
2022-11-29T08:35:18.982Z,51.179260
2022-11-29T08:36:19.009Z,51.179276
2022-11-29T08:37:18.996Z,51.179276
2022-11-29T08:38:18.979Z,51.179276
2022-11-29T08:39:18.979Z,51.179264
2022-11-29T08:40:18.974Z,51.179253
2022-11-29T08:41:18.955Z,51.179256
2022-11-29T08:42:18.947Z,51.179268
2022-11-29T08:43:18.939Z,51.179272
2022-11-29T08:44:18.898Z,51.179256
2022-11-29T08:45:18.939Z,51.179253
2022-11-29T08:46:19.214Z,51.179245
2022-11-29T08:47:18.872Z,51.179234
2022-11-29T08:48:18.887Z,51.179249
2022-11-29T08:49:18.856Z,51.179226
2022-11-29T08:50:18.929Z,51.179226
2022-11-29T08:51:18.871Z,51.179241
2022-11-29T08:52:18.799Z,51.179253
2022-11-29T08:53:18.819Z,51.179260
2022-11-29T08:54:18.829Z,51.179237
2022-11-29T08:55:18.770Z,51.179222
2022-11-29T08:58:20.755Z,51.179237
2022-11-29T08:59:18.781Z,51.179260
2022-11-29T09:00:18.753Z,51.179260
2022-11-29T09:01:18.819Z,51.179245
2022-11-29T09:02:18.813Z,51.179256
2022-11-29T09:03:18.730Z,51.179268
2022-11-29T09:04:18.690Z,51.179249
2022-11-29T09:05:18.725Z,51.179226
2022-11-29T09:06:18.694Z,51.179234
2022-11-29T09:07:18.745Z,51.179253
2022-11-29T09:08:18.668Z,51.179237
2022-11-29T09:09:18.636Z,51.179264
2022-11-29T09:10:18.684Z,51.179234
2022-11-29T09:11:18.642Z,51.179203
2022-11-29T09:12:18.641Z,51.179214
2022-11-29T09:13:18.614Z,51.179237
2022-11-29T09:14:18.616Z,51.179276
2022-11-29T09:15:18.603Z,51.179256
2022-11-29T09:16:18.648Z,51.179260
2022-11-29T09:17:18.589Z,51.179214
2022-11-29T09:18:18.541Z,51.179188
2022-11-29T09:19:18.547Z,51.179218
2022-11-29T09:20:18.576Z,51.179230
2022-11-29T09:21:18.524Z,51.179237
2022-11-29T09:22:18.503Z,51.179211
2022-11-29T09:23:18.593Z,51.179230
2022-11-29T09:24:18.485Z,51.179234
2022-11-29T09:25:18.497Z,51.179268
2022-11-29T09:26:18.471Z,51.179276
2022-11-29T09:27:18.488Z,51.179279
2022-11-29T09:28:18.438Z,51.179272
2022-11-29T09:29:18.463Z,51.179279
2022-11-29T09:30:23.546Z,51.179276
2022-11-29T09:31:20.454Z,51.179264
2022-11-29T09:32:18.406Z,51.179256
2022-11-29T09:33:18.393Z,51.179283
2022-11-29T09:34:18.384Z,51.179279
2022-11-29T09:35:18.384Z,51.179253
2022-11-29T09:36:18.390Z,51.179249
2022-11-29T09:37:18.415Z,51.179245
2022-11-29T09:38:18.363Z,51.179245
2022-11-29T09:39:18.350Z,51.179226
2022-11-29T09:40:19.339Z,51.179211
2022-11-29T09:41:52.261Z,51.179230
2022-11-29T09:42:18.327Z,51.179264
2022-11-29T09:43:18.404Z,51.179264
2022-11-29T09:44:18.285Z,51.179234
2022-11-29T09:45:18.260Z,51.179218
2022-11-29T09:46:18.463Z,51.179226
2022-11-29T09:47:18.255Z,51.179260
2022-11-29T09:48:18.286Z,51.179272
2022-11-29T09:49:18.213Z,51.179218
2022-11-29T09:50:18.269Z,51.179218
2022-11-29T09:51:18.228Z,51.179222
2022-11-29T09:52:18.211Z,51.179222
2022-11-29T09:53:18.193Z,51.179222
2022-11-29T09:54:18.208Z,51.179256
2022-11-29T09:55:18.154Z,51.179245
2022-11-29T09:56:18.152Z,51.179218
2022-11-29T09:57:18.198Z,51.179241
2022-11-29T09:58:18.128Z,51.179283
2022-11-29T09:59:18.172Z,51.179279
2022-11-29T10:00:18.111Z,51.179237
2022-11-29T10:01:18.199Z,51.179226
2022-11-29T10:02:21.374Z,51.179245
2022-11-29T10:03:19.035Z,51.179249
2022-11-29T10:04:18.038Z,51.179211
2022-11-29T10:05:18.103Z,51.179184
2022-11-29T10:06:18.071Z,51.179207
2022-11-29T10:07:18.069Z,51.179214
2022-11-29T10:08:18.096Z,51.179237
2022-11-29T10:09:18.004Z,51.179230
2022-11-29T10:10:18.092Z,51.179249
2022-11-29T10:11:18.074Z,51.179249
2022-11-29T10:12:18.160Z,51.179264
2022-11-29T10:13:17.996Z,51.179234
2022-11-29T10:14:17.974Z,51.179222
2022-11-29T10:15:17.948Z,51.179241
2022-11-29T10:16:17.979Z,51.179226
2022-11-29T10:17:17.899Z,51.179241
2022-11-29T10:18:17.920Z,51.179230
2022-11-29T10:19:17.943Z,51.179234
2022-11-29T10:20:17.972Z,51.179214
2022-11-29T10:21:17.915Z,51.179237
2022-11-29T10:22:17.977Z,51.179230
2022-11-29T10:23:17.916Z,51.179264
2022-11-29T10:24:17.930Z,51.179298
2022-11-29T10:25:17.801Z,51.179279
2022-11-29T10:26:17.832Z,51.179237
2022-11-29T10:27:17.779Z,51.179253
2022-11-29T10:28:17.855Z,51.179260
2022-11-29T10:29:17.782Z,51.179283
2022-11-29T10:30:17.866Z,51.179237
2022-11-29T10:31:17.796Z,51.179237
2022-11-29T10:32:17.720Z,51.179241
2022-11-29T10:33:17.748Z,51.179184
2022-11-29T10:34:17.835Z,51.179245
2022-11-29T10:35:17.724Z,51.179253
2022-11-29T10:36:17.702Z,51.179253
2022-11-29T10:37:17.717Z,51.179249
2022-11-29T10:38:33.003Z,51.179226
2022-11-29T10:39:19.779Z,51.179195
2022-11-29T10:40:17.699Z,51.179211
2022-11-29T10:41:17.738Z,51.179188
2022-11-29T10:42:17.811Z,51.179184
2022-11-29T10:43:17.702Z,51.179230
2022-11-29T10:44:17.660Z,51.179230
2022-11-29T10:45:17.679Z,51.179226
2022-11-29T10:46:17.738Z,51.179253
2022-11-29T10:47:17.749Z,51.179256
2022-11-29T10:48:17.684Z,51.179253
2022-11-29T10:49:17.657Z,51.179237
2022-11-29T10:50:17.570Z,51.179180
2022-11-29T10:51:17.578Z,51.179169
2022-11-29T10:52:17.543Z,51.179195
2022-11-29T10:53:17.549Z,51.179253
2022-11-29T10:54:17.546Z,51.179226
2022-11-29T10:55:17.493Z,51.179188
2022-11-29T10:56:17.833Z,51.179203
2022-11-29T10:57:17.495Z,51.179180
2022-11-29T10:58:17.515Z,51.179226
2022-11-29T10:59:17.488Z,51.179256
2022-11-29T11:00:17.621Z,51.179253
2022-11-29T11:01:17.450Z,51.179245
2022-11-29T11:02:17.402Z,51.179260
2022-11-29T11:03:17.445Z,51.179287
2022-11-29T11:04:17.449Z,51.179241
2022-11-29T11:05:17.489Z,51.179199
2022-11-29T11:06:17.433Z,51.179237
2022-11-29T11:07:17.447Z,51.179234
2022-11-29T11:08:17.340Z,51.179234
2022-11-29T11:09:17.383Z,51.179241
2022-11-29T11:10:17.307Z,51.179234
2022-11-29T11:11:17.327Z,51.179237
2022-11-29T11:12:17.282Z,51.179207
2022-11-29T11:13:17.361Z,51.179214
2022-11-29T11:14:17.263Z,51.179218
2022-11-29T11:15:17.359Z,51.179218
2022-11-29T11:16:17.421Z,51.179249
2022-11-29T11:17:17.527Z,51.179283
2022-11-29T11:18:17.664Z,51.179272
2022-11-29T11:19:17.533Z,51.179218
2022-11-29T11:20:17.453Z,51.179222
2022-11-29T11:21:17.496Z,51.179226
2022-11-29T11:22:17.420Z,51.179230
2022-11-29T11:23:17.425Z,51.179241
2022-11-29T11:24:17.513Z,51.179321
2022-11-29T11:25:17.381Z,51.179314
2022-11-29T11:26:17.368Z,51.179310